sensor_id;sensor_type;location;lat;lon;timestamp;pressure;altitude;pressure_sealevel;temperature;humidity
38780;BME280;29273;49.962;9.768;2022-12-16T00:00:02;98763.25;;;2.76;47.09
38780;BME280;29273;49.962;9.768;2022-12-16T00:02:30;98752.00;;;2.75;47.14
38780;BME280;29273;49.962;9.768;2022-12-16T00:04:56;98747.56;;;2.76;46.68
38780;BME280;29273;49.962;9.768;2022-12-16T00:07:22;98751.81;;;2.77;46.78
38780;BME280;29273;49.962;9.768;2022-12-16T00:09:48;98752.78;;;2.76;46.71
38780;BME280;29273;49.962;9.768;2022-12-16T00:12:14;98755.41;;;2.76;46.63
38780;BME280;29273;49.962;9.768;2022-12-16T00:14:39;98748.56;;;2.75;46.40
38780;BME280;29273;49.962;9.768;2022-12-16T00:17:05;98755.59;;;2.74;46.35
38780;BME280;29273;49.962;9.768;2022-12-16T00:19:31;98751.19;;;2.75;46.40
38780;BME280;29273;49.962;9.768;2022-12-16T00:21:56;98749.56;;;2.74;46.46
38780;BME280;29273;49.962;9.768;2022-12-16T00:24:21;98752.34;;;2.72;46.12
38780;BME280;29273;49.962;9.768;2022-12-16T00:26:47;98751.53;;;2.72;46.35
38780;BME280;29273;49.962;9.768;2022-12-16T00:29:13;98745.69;;;2.70;46.23
38780;BME280;29273;49.962;9.768;2022-12-16T00:31:38;98733.59;;;2.69;46.37
38780;BME280;29273;49.962;9.768;2022-12-16T00:34:04;98737.34;;;2.66;46.32
38780;BME280;29273;49.962;9.768;2022-12-16T00:36:29;98734.91;;;2.65;46.41
38780;BME280;29273;49.962;9.768;2022-12-16T00:38:55;98737.53;;;2.65;46.29
38780;BME280;29273;49.962;9.768;2022-12-16T00:41:20;98727.44;;;2.62;46.39
38780;BME280;29273;49.962;9.768;2022-12-16T00:43:46;98736.28;;;2.61;46.47
38780;BME280;29273;49.962;9.768;2022-12-16T00:46:12;98730.25;;;2.60;46.52
38780;BME280;29273;49.962;9.768;2022-12-16T00:48:37;98740.03;;;2.58;46.63
38780;BME280;29273;49.962;9.768;2022-12-16T00:51:02;98739.22;;;2.57;46.71
38780;BME280;29273;49.962;9.768;2022-12-16T00:53:28;98736.78;;;2.56;46.49
38780;BME280;29273;49.962;9.768;2022-12-16T00:56:04;98734.63;;;2.59;46.98
38780;BME280;29273;49.962;9.768;2022-12-16T00:58:30;98740.41;;;2.55;46.53
38780;BME280;29273;49.962;9.768;2022-12-16T01:00:56;98745.81;;;2.53;46.37
38780;BME280;29273;49.962;9.768;2022-12-16T01:03:21;98746.78;;;2.52;46.42
38780;BME280;29273;49.962;9.768;2022-12-16T01:05:47;98757.25;;;2.52;46.33
38780;BME280;29273;49.962;9.768;2022-12-16T01:08:13;98750.38;;;2.51;46.06
38780;BME280;29273;49.962;9.768;2022-12-16T01:10:38;98762.63;;;2.51;46.37
38780;BME280;29273;49.962;9.768;2022-12-16T01:13:03;98761.00;;;2.50;46.13
38780;BME280;29273;49.962;9.768;2022-12-16T01:15:29;98775.88;;;2.49;45.97
38780;BME280;29273;49.962;9.768;2022-12-16T01:17:54;98772.47;;;2.49;45.87
38780;BME280;29273;49.962;9.768;2022-12-16T01:20:20;98776.06;;;2.48;45.83
38780;BME280;29273;49.962;9.768;2022-12-16T01:22:45;98783.09;;;2.47;45.93
38780;BME280;29273;49.962;9.768;2022-12-16T01:25:11;98785.72;;;2.47;46.13
38780;BME280;29273;49.962;9.768;2022-12-16T01:27:39;98782.63;;;2.44;45.87
38780;BME280;29273;49.962;9.768;2022-12-16T01:30:06;98783.59;;;2.43;45.94
38780;BME280;29273;49.962;9.768;2022-12-16T01:32:33;98796.03;;;2.40;45.63
38780;BME280;29273;49.962;9.768;2022-12-16T01:34:58;98790.00;;;2.40;45.99
38780;BME280;29273;49.962;9.768;2022-12-16T01:37:25;98797.00;;;2.39;45.82
38780;BME280;29273;49.962;9.768;2022-12-16T01:39:50;98798.81;;;2.39;45.92
38780;BME280;29273;49.962;9.768;2022-12-16T01:42:19;98803.06;;;2.40;45.99
38780;BME280;29273;49.962;9.768;2022-12-16T01:44:46;98798.03;;;2.38;46.00
38780;BME280;29273;49.962;9.768;2022-12-16T01:47:21;98793.25;;;2.42;46.35
38780;BME280;29273;49.962;9.768;2022-12-16T01:50:02;98803.72;;;2.42;46.47
38780;BME280;29273;49.962;9.768;2022-12-16T01:52:41;98802.06;;;2.41;46.39
38780;BME280;29273;49.962;9.768;2022-12-16T01:55:17;98807.94;;;2.43;46.51
38780;BME280;29273;49.962;9.768;2022-12-16T01:57:52;98809.91;;;2.41;46.12
38780;BME280;29273;49.962;9.768;2022-12-16T02:00:19;98810.25;;;2.38;46.14
38780;BME280;29273;49.962;9.768;2022-12-16T02:02:45;98810.41;;;2.36;46.13
38780;BME280;29273;49.962;9.768;2022-12-16T02:05:15;98813.03;;;2.36;46.40
38780;BME280;29273;49.962;9.768;2022-12-16T02:08:08;98809.38;;;2.22;47.42
38780;BME280;29273;49.962;9.768;2022-12-16T02:32:35;98807.75;;;2.21;46.63
38780;BME280;29273;49.962;9.768;2022-12-16T02:38:12;98804.50;;;2.19;46.37
38780;BME280;29273;49.962;9.768;2022-12-16T02:40:45;98807.28;;;2.18;45.78
38780;BME280;29273;49.962;9.768;2022-12-16T02:46:13;98801.13;;;2.11;45.43
38780;BME280;29273;49.962;9.768;2022-12-16T02:48:39;98803.91;;;2.09;45.02
38780;BME280;29273;49.962;9.768;2022-12-16T02:51:05;98798.66;;;2.09;45.08
38780;BME280;29273;49.962;9.768;2022-12-16T02:53:34;98806.34;;;2.11;45.10
38780;BME280;29273;49.962;9.768;2022-12-16T02:56:14;98796.06;;;2.09;44.63
38780;BME280;29273;49.962;9.768;2022-12-16T02:59:02;98799.84;;;2.07;45.15
38780;BME280;29273;49.962;9.768;2022-12-16T03:01:54;98799.19;;;2.04;45.26
38780;BME280;29273;49.962;9.768;2022-12-16T03:04:34;98798.88;;;1.99;44.70
38780;BME280;29273;49.962;9.768;2022-12-16T03:07:03;98805.44;;;1.95;44.77
38780;BME280;29273;49.962;9.768;2022-12-16T03:09:33;98801.38;;;1.93;44.85
38780;BME280;29273;49.962;9.768;2022-12-16T03:12:05;98799.25;;;1.88;44.80
38780;BME280;29273;49.962;9.768;2022-12-16T03:14:34;98801.41;;;1.84;45.00
38780;BME280;29273;49.962;9.768;2022-12-16T03:17:01;98800.13;;;1.80;45.21
38780;BME280;29273;49.962;9.768;2022-12-16T03:19:29;98811.38;;;1.81;45.33
38780;BME280;29273;49.962;9.768;2022-12-16T03:22:02;98806.31;;;1.79;45.83
38780;BME280;29273;49.962;9.768;2022-12-16T03:24:29;98813.22;;;1.72;45.05
38780;BME280;29273;49.962;9.768;2022-12-16T03:27:15;98806.34;;;1.71;45.42
38780;BME280;29273;49.962;9.768;2022-12-16T03:29:58;98811.72;;;1.70;45.37
38780;BME280;29273;49.962;9.768;2022-12-16T03:32:33;98810.13;;;1.69;45.60
38780;BME280;29273;49.962;9.768;2022-12-16T03:35:11;98815.50;;;1.67;45.52
38780;BME280;29273;49.962;9.768;2022-12-16T03:37:39;98815.22;;;1.62;45.31
38780;BME280;29273;49.962;9.768;2022-12-16T03:40:07;98817.16;;;1.60;45.38
38780;BME280;29273;49.962;9.768;2022-12-16T03:42:34;98817.34;;;1.58;45.46
38780;BME280;29273;49.962;9.768;2022-12-16T03:45:01;98822.72;;;1.57;45.56
38780;BME280;29273;49.962;9.768;2022-12-16T03:47:28;98826.94;;;1.58;45.34
38780;BME280;29273;49.962;9.768;2022-12-16T03:49:53;98834.13;;;1.56;45.22
38780;BME280;29273;49.962;9.768;2022-12-16T03:52:19;98833.81;;;1.51;45.34
38780;BME280;29273;49.962;9.768;2022-12-16T03:54:44;98832.50;;;1.46;45.37
38780;BME280;29273;49.962;9.768;2022-12-16T03:57:10;98832.50;;;1.46;45.37
38780;BME280;29273;49.962;9.768;2022-12-16T03:59:37;98840.03;;;1.41;45.38
38780;BME280;29273;49.962;9.768;2022-12-16T04:02:02;98844.59;;;1.39;45.59
38780;BME280;29273;49.962;9.768;2022-12-16T04:04:28;98845.78;;;1.37;45.60
38780;BME280;29273;49.962;9.768;2022-12-16T04:06:53;98844.44;;;1.33;45.71
38780;BME280;29273;49.962;9.768;2022-12-16T04:09:37;98847.56;;;1.28;45.71
38780;BME280;29273;49.962;9.768;2022-12-16T04:12:03;98855.53;;;1.26;45.63
38780;BME280;29273;49.962;9.768;2022-12-16T04:14:47;98858.81;;;1.20;45.76
38780;BME280;29273;49.962;9.768;2022-12-16T04:17:31;98862.56;;;1.18;45.74
38780;BME280;29273;49.962;9.768;2022-12-16T04:20:17;98856.88;;;1.14;45.82
38780;BME280;29273;49.962;9.768;2022-12-16T04:23:03;98853.94;;;1.09;45.86
38780;BME280;29273;49.962;9.768;2022-12-16T04:25:47;98860.63;;;1.03;45.88
38780;BME280;29273;49.962;9.768;2022-12-16T04:28:13;98866.97;;;1.01;45.96
38780;BME280;29273;49.962;9.768;2022-12-16T04:30:38;98874.16;;;0.99;45.96
38780;BME280;29273;49.962;9.768;2022-12-16T04:33:09;98874.81;;;1.01;46.01
38780;BME280;29273;49.962;9.768;2022-12-16T04:35:54;98867.63;;;0.95;46.19
38780;BME280;29273;49.962;9.768;2022-12-16T04:38:38;98866.00;;;0.94;45.92
38780;BME280;29273;49.962;9.768;2022-12-16T04:41:23;98874.16;;;0.90;45.90
38780;BME280;29273;49.962;9.768;2022-12-16T04:44:07;98875.13;;;0.89;45.63
38780;BME280;29273;49.962;9.768;2022-12-16T04:46:51;98881.47;;;0.87;45.51
38780;BME280;29273;49.962;9.768;2022-12-16T04:49:35;98881.97;;;0.82;45.60
38780;BME280;29273;49.962;9.768;2022-12-16T04:52:19;98891.22;;;0.77;45.31
38780;BME280;29273;49.962;9.768;2022-12-16T04:55:04;98900.34;;;0.72;45.37
38780;BME280;29273;49.962;9.768;2022-12-16T04:57:53;98906.69;;;0.70;45.49
38780;BME280;29273;49.962;9.768;2022-12-16T05:00:38;98905.69;;;0.63;45.39
38780;BME280;29273;49.962;9.768;2022-12-16T05:03:23;98910.41;;;0.59;45.48
38780;BME280;29273;49.962;9.768;2022-12-16T05:06:07;98915.28;;;0.54;45.24
38780;BME280;29273;49.962;9.768;2022-12-16T05:08:52;98916.56;;;0.50;45.48
38780;BME280;29273;49.962;9.768;2022-12-16T05:11:36;98920.47;;;0.46;45.52
38780;BME280;29273;49.962;9.768;2022-12-16T05:14:19;98930.41;;;0.42;45.63
38780;BME280;29273;49.962;9.768;2022-12-16T05:17:03;98933.47;;;0.38;45.59
38780;BME280;29273;49.962;9.768;2022-12-16T05:19:48;98943.41;;;0.34;45.71
38780;BME280;29273;49.962;9.768;2022-12-16T05:22:32;98941.09;;;0.31;45.81
38780;BME280;29273;49.962;9.768;2022-12-16T05:25:16;98948.41;;;0.27;46.05
38780;BME280;29273;49.962;9.768;2022-12-16T05:28:00;98955.72;;;0.24;45.95
38780;BME280;29273;49.962;9.768;2022-12-16T05:30:44;98951.47;;;0.23;46.05
38780;BME280;29273;49.962;9.768;2022-12-16T05:33:28;98965.47;;;0.22;46.18
38780;BME280;29273;49.962;9.768;2022-12-16T05:36:12;98970.31;;;0.16;46.01
38780;BME280;29273;49.962;9.768;2022-12-16T05:38:56;98967.22;;;0.13;46.29
38780;BME280;29273;49.962;9.768;2022-12-16T05:41:40;98977.63;;;0.13;46.31
38780;BME280;29273;49.962;9.768;2022-12-16T05:44:24;98982.19;;;0.11;46.26
38780;BME280;29273;49.962;9.768;2022-12-16T05:47:08;98982.34;;;0.09;46.47
38780;BME280;29273;49.962;9.768;2022-12-16T05:49:52;98980.88;;;0.07;46.31
38780;BME280;29273;49.962;9.768;2022-12-16T05:52:37;98989.66;;;0.06;46.56
38780;BME280;29273;49.962;9.768;2022-12-16T05:55:21;98998.56;;;0.03;46.54
38780;BME280;29273;49.962;9.768;2022-12-16T05:58:05;98994.34;;;0.02;46.60
38780;BME280;29273;49.962;9.768;2022-12-16T06:00:50;99004.75;;;0.02;46.59
38780;BME280;29273;49.962;9.768;2022-12-16T06:03:34;99009.13;;;0.02;46.45
38780;BME280;29273;49.962;9.768;2022-12-16T06:06:18;98998.91;;;0.00;46.56
38780;BME280;29273;49.962;9.768;2022-12-16T06:09:03;99011.06;;;-0.01;46.61
38780;BME280;29273;49.962;9.768;2022-12-16T06:11:46;99017.13;;;0.00;46.76
38780;BME280;29273;49.962;9.768;2022-12-16T06:14:31;99018.06;;;-0.01;46.54
38780;BME280;29273;49.962;9.768;2022-12-16T06:17:15;99030.13;;;0.00;46.57
38780;BME280;29273;49.962;9.768;2022-12-16T06:19:59;99026.53;;;0.01;46.44
38780;BME280;29273;49.962;9.768;2022-12-16T06:22:49;99030.66;;;0.04;46.39
38780;BME280;29273;49.962;9.768;2022-12-16T06:25:33;99036.31;;;-0.01;46.57
38780;BME280;29273;49.962;9.768;2022-12-16T06:28:17;99040.84;;;-0.03;46.58
38780;BME280;29273;49.962;9.768;2022-12-16T06:31:01;99042.75;;;-0.05;46.48
38780;BME280;29273;49.962;9.768;2022-12-16T06:33:45;99046.50;;;-0.08;46.44
38780;BME280;29273;49.962;9.768;2022-12-16T06:36:29;99054.31;;;-0.08;46.51
38780;BME280;29273;49.962;9.768;2022-12-16T06:39:12;99066.66;;;-0.10;46.53
38780;BME280;29273;49.962;9.768;2022-12-16T06:41:56;99072.84;;;-0.11;46.37
38780;BME280;29273;49.962;9.768;2022-12-16T06:44:40;99074.63;;;-0.11;46.56
38780;BME280;29273;49.962;9.768;2022-12-16T06:47:24;99080.94;;;-0.14;46.41
38780;BME280;29273;49.962;9.768;2022-12-16T06:50:08;99075.06;;;-0.16;46.36
38780;BME280;29273;49.962;9.768;2022-12-16T06:52:52;99086.28;;;-0.15;46.25
38780;BME280;29273;49.962;9.768;2022-12-16T06:55:36;99096.03;;;-0.17;46.45
38780;BME280;29273;49.962;9.768;2022-12-16T06:58:19;99097.13;;;-0.20;46.28
38780;BME280;29273;49.962;9.768;2022-12-16T07:01:03;99097.31;;;-0.22;46.29
38780;BME280;29273;49.962;9.768;2022-12-16T07:03:48;99094.16;;;-0.25;46.13
38780;BME280;29273;49.962;9.768;2022-12-16T07:06:31;99104.91;;;-0.28;46.18
38780;BME280;29273;49.962;9.768;2022-12-16T07:09:15;99107.81;;;-0.31;46.31
38780;BME280;29273;49.962;9.768;2022-12-16T07:11:59;99103.03;;;-0.36;46.26
38780;BME280;29273;49.962;9.768;2022-12-16T07:14:43;99112.63;;;-0.36;46.27
38780;BME280;29273;49.962;9.768;2022-12-16T07:17:27;99113.88;;;-0.41;46.27
38780;BME280;29273;49.962;9.768;2022-12-16T07:20:11;99120.22;;;-0.43;46.28
38780;BME280;29273;49.962;9.768;2022-12-16T07:22:55;99128.44;;;-0.48;46.36
38780;BME280;29273;49.962;9.768;2022-12-16T07:25:39;99137.22;;;-0.49;46.45
38780;BME280;29273;49.962;9.768;2022-12-16T07:28:23;99148.03;;;-0.53;46.47
38780;BME280;29273;49.962;9.768;2022-12-16T07:31:07;99142.31;;;-0.57;46.57
38780;BME280;29273;49.962;9.768;2022-12-16T07:33:50;99149.47;;;-0.59;46.61
38780;BME280;29273;49.962;9.768;2022-12-16T07:36:34;99158.34;;;-0.62;46.78
38780;BME280;29273;49.962;9.768;2022-12-16T07:39:18;99164.53;;;-0.63;46.93
38780;BME280;29273;49.962;9.768;2022-12-16T07:42:02;99167.28;;;-0.64;46.94
38780;BME280;29273;49.962;9.768;2022-12-16T07:44:46;99171.81;;;-0.66;46.84
38780;BME280;29273;49.962;9.768;2022-12-16T07:47:31;99172.63;;;-0.66;47.13
38780;BME280;29273;49.962;9.768;2022-12-16T07:50:14;99176.19;;;-0.67;47.24
38780;BME280;29273;49.962;9.768;2022-12-16T07:52:59;99179.63;;;-0.66;47.23
38780;BME280;29273;49.962;9.768;2022-12-16T07:55:44;99182.88;;;-0.64;47.34
38780;BME280;29273;49.962;9.768;2022-12-16T07:58:29;99183.69;;;-0.64;47.20
38780;BME280;29273;49.962;9.768;2022-12-16T08:01:13;99187.13;;;-0.63;47.30
38780;BME280;29273;49.962;9.768;2022-12-16T08:03:57;99195.88;;;-0.64;47.11
38780;BME280;29273;49.962;9.768;2022-12-16T08:06:42;99200.28;;;-0.65;47.00
38780;BME280;29273;49.962;9.768;2022-12-16T08:09:26;99209.84;;;-0.65;47.09
38780;BME280;29273;49.962;9.768;2022-12-16T08:12:10;99205.63;;;-0.66;47.27
38780;BME280;29273;49.962;9.768;2022-12-16T08:14:54;99207.69;;;-0.70;47.12
38780;BME280;29273;49.962;9.768;2022-12-16T08:17:41;99208.09;;;-0.65;47.18
38780;BME280;29273;49.962;9.768;2022-12-16T08:20:30;99209.31;;;-0.69;47.51
38780;BME280;29273;49.962;9.768;2022-12-16T08:23:14;99219.72;;;-0.69;47.32
38780;BME280;29273;49.962;9.768;2022-12-16T08:25:58;99221.50;;;-0.69;47.46
38780;BME280;29273;49.962;9.768;2022-12-16T08:28:42;99229.31;;;-0.69;47.24
38780;BME280;29273;49.962;9.768;2022-12-16T08:31:26;99234.50;;;-0.69;47.57
38780;BME280;29273;49.962;9.768;2022-12-16T08:34:10;99228.50;;;-0.70;47.49
38780;BME280;29273;49.962;9.768;2022-12-16T08:36:55;99239.56;;;-0.68;47.68
38780;BME280;29273;49.962;9.768;2022-12-16T08:39:38;99235.03;;;-0.66;47.67
38780;BME280;29273;49.962;9.768;2022-12-16T08:42:22;99248.72;;;-0.64;47.85
38780;BME280;29273;49.962;9.768;2022-12-16T08:45:06;99254.44;;;-0.60;47.84
38780;BME280;29273;49.962;9.768;2022-12-16T08:47:51;99251.56;;;-0.57;47.69
38780;BME280;29273;49.962;9.768;2022-12-16T08:50:34;99255.81;;;-0.56;47.66
38780;BME280;29273;49.962;9.768;2022-12-16T08:53:18;99258.94;;;-0.52;47.67
38780;BME280;29273;49.962;9.768;2022-12-16T08:56:02;99269.06;;;-0.49;47.79
38780;BME280;29273;49.962;9.768;2022-12-16T08:58:47;99267.13;;;-0.47;47.80
38780;BME280;29273;49.962;9.768;2022-12-16T09:01:31;99270.25;;;-0.44;47.80
38780;BME280;29273;49.962;9.768;2022-12-16T09:04:15;99272.56;;;-0.41;47.80
38780;BME280;29273;49.962;9.768;2022-12-16T09:06:59;99281.75;;;-0.36;47.73
38780;BME280;29273;49.962;9.768;2022-12-16T09:09:43;99287.34;;;-0.31;47.83
38780;BME280;29273;49.962;9.768;2022-12-16T09:12:27;99288.69;;;-0.27;47.84
38780;BME280;29273;49.962;9.768;2022-12-16T09:15:11;99291.00;;;-0.24;47.76
38780;BME280;29273;49.962;9.768;2022-12-16T09:17:55;99285.50;;;-0.21;47.84
38780;BME280;29273;49.962;9.768;2022-12-16T09:20:40;99293.84;;;-0.17;47.78
38780;BME280;29273;49.962;9.768;2022-12-16T09:23:24;99296.16;;;-0.14;47.83
38780;BME280;29273;49.962;9.768;2022-12-16T09:26:08;99288.88;;;-0.11;47.75
38780;BME280;29273;49.962;9.768;2022-12-16T09:28:52;99295.59;;;-0.08;47.55
38780;BME280;29273;49.962;9.768;2022-12-16T09:31:36;99302.94;;;-0.04;47.46
38780;BME280;29273;49.962;9.768;2022-12-16T09:34:20;99295.81;;;-0.02;47.62
38780;BME280;29273;49.962;9.768;2022-12-16T09:37:17;99294.69;;;0.01;47.23
38780;BME280;29273;49.962;9.768;2022-12-16T09:40:02;99303.03;;;0.05;47.33
38780;BME280;29273;49.962;9.768;2022-12-16T09:43:05;99299.31;;;0.07;47.29
38780;BME280;29273;49.962;9.768;2022-12-16T09:49:00;99307.06;;;0.17;47.39
38780;BME280;29273;49.962;9.768;2022-12-16T09:51:49;99309.53;;;0.18;47.50
38780;BME280;29273;49.962;9.768;2022-12-16T09:54:38;99309.75;;;0.25;47.44
38780;BME280;29273;49.962;9.768;2022-12-16T09:57:25;99302.09;;;0.24;47.24
38780;BME280;29273;49.962;9.768;2022-12-16T10:00:21;99315.88;;;0.34;47.53
38780;BME280;29273;49.962;9.768;2022-12-16T10:03:14;99308.72;;;0.36;47.27
38780;BME280;29273;49.962;9.768;2022-12-16T10:11:59;99304.25;;;0.46;47.38
38780;BME280;29273;49.962;9.768;2022-12-16T10:14:59;99303.53;;;0.54;47.52
38780;BME280;29273;49.962;9.768;2022-12-16T10:17:46;99303.53;;;0.54;47.43
38780;BME280;29273;49.962;9.768;2022-12-16T10:20:43;99307.81;;;0.63;47.44
38780;BME280;29273;49.962;9.768;2022-12-16T10:26:52;99304.31;;;0.72;47.59
38780;BME280;29273;49.962;9.768;2022-12-16T10:29:41;99302.88;;;0.78;47.54
38780;BME280;29273;49.962;9.768;2022-12-16T10:32:35;99303.25;;;0.83;47.50
38780;BME280;29273;49.962;9.768;2022-12-16T10:35:23;99300.19;;;0.88;47.36
38780;BME280;29273;49.962;9.768;2022-12-16T10:38:17;99306.63;;;0.94;47.50
38780;BME280;29273;49.962;9.768;2022-12-16T10:41:05;99299.44;;;0.96;47.57
38780;BME280;29273;49.962;9.768;2022-12-16T10:43:49;99297.34;;;0.99;47.42
38780;BME280;29273;49.962;9.768;2022-12-16T10:46:39;99297.88;;;1.03;47.66
38780;BME280;29273;49.962;9.768;2022-12-16T10:49:23;99311.13;;;1.09;47.38
38780;BME280;29273;49.962;9.768;2022-12-16T10:52:10;99313.13;;;1.16;47.17
38780;BME280;29273;49.962;9.768;2022-12-16T10:58:24;99309.56;;;1.25;47.51
38780;BME280;29273;49.962;9.768;2022-12-16T11:01:25;99315.84;;;1.32;47.38
38780;BME280;29273;49.962;9.768;2022-12-16T11:04:29;99307.69;;;1.35;47.51
38780;BME280;29273;49.962;9.768;2022-12-16T11:10:29;99302.38;;;1.45;46.82
38780;BME280;29273;49.962;9.768;2022-12-16T11:13:27;99304.03;;;1.54;47.00
38780;BME280;29273;49.962;9.768;2022-12-16T11:18:55;99308.81;;;1.59;46.88
38780;BME280;29273;49.962;9.768;2022-12-16T11:21:39;99317.63;;;1.66;46.72
38780;BME280;29273;49.962;9.768;2022-12-16T11:24:23;99317.16;;;1.71;46.86
38780;BME280;29273;49.962;9.768;2022-12-16T11:30:15;99320.16;;;1.84;46.93
38780;BME280;29273;49.962;9.768;2022-12-16T11:33:05;99314.47;;;1.89;47.13
38780;BME280;29273;49.962;9.768;2022-12-16T11:35:59;99321.84;;;1.93;47.01
38780;BME280;29273;49.962;9.768;2022-12-16T11:38:49;99326.56;;;1.98;46.90
38780;BME280;29273;49.962;9.768;2022-12-16T11:44:29;99322.88;;;2.09;46.83
38780;BME280;29273;49.962;9.768;2022-12-16T11:50:12;99322.91;;;2.17;47.03
38780;BME280;29273;49.962;9.768;2022-12-16T11:52:58;99329.59;;;2.19;46.77
38780;BME280;29273;49.962;9.768;2022-12-16T11:55:46;99335.16;;;2.25;46.57
38780;BME280;29273;49.962;9.768;2022-12-16T11:58:47;99334.84;;;2.28;46.75
38780;BME280;29273;49.962;9.768;2022-12-16T12:01:41;99343.00;;;2.33;46.41
38780;BME280;29273;49.962;9.768;2022-12-16T12:04:28;99342.03;;;2.34;46.44
38780;BME280;29273;49.962;9.768;2022-12-16T12:07:23;99349.91;;;2.42;46.71
38780;BME280;29273;49.962;9.768;2022-12-16T12:10:54;99353.00;;;2.46;46.51
38780;BME280;29273;49.962;9.768;2022-12-16T12:22:38;99358.59;;;2.59;46.38
38780;BME280;29273;49.962;9.768;2022-12-16T12:25:30;99356.97;;;2.66;46.44
38780;BME280;29273;49.962;9.768;2022-12-16T12:28:51;99359.56;;;2.66;46.68
38780;BME280;29273;49.962;9.768;2022-12-16T12:34:41;99364.66;;;2.76;46.25
38780;BME280;29273;49.962;9.768;2022-12-16T12:37:33;99369.41;;;2.81;46.21
38780;BME280;29273;49.962;9.768;2022-12-16T12:46:20;99372.53;;;2.92;46.23
38780;BME280;29273;49.962;9.768;2022-12-16T12:49:18;99377.28;;;2.97;46.19
38780;BME280;29273;49.962;9.768;2022-12-16T12:52:12;99377.44;;;2.95;45.62
38780;BME280;29273;49.962;9.768;2022-12-16T12:55:22;99384.47;;;3.03;45.88
38780;BME280;29273;49.962;9.768;2022-12-16T12:58:12;99387.25;;;3.02;45.91
38780;BME280;29273;49.962;9.768;2022-12-16T13:00:59;99386.09;;;3.04;46.11
38780;BME280;29273;49.962;9.768;2022-12-16T13:03:49;99385.59;;;3.09;46.18
38780;BME280;29273;49.962;9.768;2022-12-16T13:06:37;99391.00;;;3.07;46.02
38780;BME280;29273;49.962;9.768;2022-12-16T13:09:35;99398.22;;;3.13;46.27
38780;BME280;29273;49.962;9.768;2022-12-16T13:12:23;99394.75;;;3.13;45.86
38780;BME280;29273;49.962;9.768;2022-12-16T13:20:51;99414.06;;;3.20;45.99
38780;BME280;29273;49.962;9.768;2022-12-16T13:23:37;99409.16;;;3.17;45.48
38780;BME280;29273;49.962;9.768;2022-12-16T13:26:32;99413.06;;;3.21;45.99
38780;BME280;29273;49.962;9.768;2022-12-16T13:38:01;99427.81;;;3.22;46.33
38780;BME280;29273;49.962;9.768;2022-12-16T13:43:50;99441.03;;;3.21;46.21
38780;BME280;29273;49.962;9.768;2022-12-16T13:47:29;99435.00;;;3.12;46.46
38780;BME280;29273;49.962;9.768;2022-12-16T13:53:22;99450.06;;;3.18;45.96
38780;BME280;29273;49.962;9.768;2022-12-16T13:56:10;99448.25;;;3.19;45.96
38780;BME280;29273;49.962;9.768;2022-12-16T13:59:03;99454.44;;;3.18;46.07
38780;BME280;29273;49.962;9.768;2022-12-16T14:01:57;99466.25;;;3.13;46.08
38780;BME280;29273;49.962;9.768;2022-12-16T14:04:52;99464.91;;;3.09;45.92
38780;BME280;29273;49.962;9.768;2022-12-16T14:07:38;99471.94;;;3.09;45.90
38780;BME280;29273;49.962;9.768;2022-12-16T14:16:19;99478.66;;;3.03;46.34
38780;BME280;29273;49.962;9.768;2022-12-16T14:19:36;99492.22;;;2.99;46.31
38780;BME280;29273;49.962;9.768;2022-12-16T14:25:33;99497.25;;;2.92;46.07
38780;BME280;29273;49.962;9.768;2022-12-16T14:28:36;99497.09;;;2.93;46.21
38780;BME280;29273;49.962;9.768;2022-12-16T14:31:29;99504.47;;;2.90;46.07
38780;BME280;29273;49.962;9.768;2022-12-16T14:34:31;99511.63;;;2.88;46.18
38780;BME280;29273;49.962;9.768;2022-12-16T14:40:05;99525.34;;;2.82;46.22
38780;BME280;29273;49.962;9.768;2022-12-16T14:43:00;99520.75;;;2.75;46.13
38780;BME280;29273;49.962;9.768;2022-12-16T14:45:48;99532.66;;;2.78;46.35
38780;BME280;29273;49.962;9.768;2022-12-16T14:48:36;99539.06;;;2.75;46.19
38780;BME280;29273;49.962;9.768;2022-12-16T14:57:24;99541.78;;;2.66;46.13
38780;BME280;29273;49.962;9.768;2022-12-16T15:05:46;99551.56;;;2.55;46.11
38780;BME280;29273;49.962;9.768;2022-12-16T15:08:35;99557.59;;;2.56;46.24
38780;BME280;29273;49.962;9.768;2022-12-16T15:11:21;99563.28;;;2.51;46.20
38780;BME280;29273;49.962;9.768;2022-12-16T15:14:11;99565.06;;;2.51;46.33
38780;BME280;29273;49.962;9.768;2022-12-16T15:16:56;99573.53;;;2.45;46.25
38780;BME280;29273;49.962;9.768;2022-12-16T15:19:47;99578.59;;;2.46;46.34
38780;BME280;29273;49.962;9.768;2022-12-16T15:22:33;99582.97;;;2.37;46.23
38780;BME280;29273;49.962;9.768;2022-12-16T15:25:23;99589.84;;;2.38;46.34
38780;BME280;29273;49.962;9.768;2022-12-16T15:28:46;99603.16;;;2.27;46.33
38780;BME280;29273;49.962;9.768;2022-12-16T15:31:33;99602.50;;;2.25;46.49
38780;BME280;29273;49.962;9.768;2022-12-16T15:37:02;99609.00;;;2.21;46.58
38780;BME280;29273;49.962;9.768;2022-12-16T15:39:46;99620.44;;;2.20;46.62
38780;BME280;29273;49.962;9.768;2022-12-16T15:42:32;99619.88;;;2.16;46.55
38780;BME280;29273;49.962;9.768;2022-12-16T15:45:23;99625.97;;;2.17;46.74
38780;BME280;29273;49.962;9.768;2022-12-16T15:48:19;99635.19;;;2.11;46.86
38780;BME280;29273;49.962;9.768;2022-12-16T15:51:38;99643.66;;;2.05;46.74
38780;BME280;29273;49.962;9.768;2022-12-16T15:54:25;99656.50;;;1.98;46.92
38780;BME280;29273;49.962;9.768;2022-12-16T16:03:14;99669.63;;;1.89;47.37
38780;BME280;29273;49.962;9.768;2022-12-16T16:05:59;99672.25;;;1.89;47.71
38780;BME280;29273;49.962;9.768;2022-12-16T16:09:32;99671.25;;;1.90;47.59
38780;BME280;29273;49.962;9.768;2022-12-16T16:12:19;99674.56;;;1.92;47.83
38780;BME280;29273;49.962;9.768;2022-12-16T16:15:06;99682.91;;;1.95;47.85
38780;BME280;29273;49.962;9.768;2022-12-16T16:17:59;99685.09;;;2.00;47.85
38780;BME280;29273;49.962;9.768;2022-12-16T16:20:44;99689.63;;;1.98;48.03
38780;BME280;29273;49.962;9.768;2022-12-16T16:23:29;99698.97;;;2.00;48.12
38780;BME280;29273;49.962;9.768;2022-12-16T16:26:15;99699.31;;;2.06;48.00
38780;BME280;29273;49.962;9.768;2022-12-16T16:29:00;99704.56;;;2.06;47.92
38780;BME280;29273;49.962;9.768;2022-12-16T16:31:45;99707.03;;;2.07;47.73
38780;BME280;29273;49.962;9.768;2022-12-16T16:34:29;99709.78;;;2.06;47.59
38780;BME280;29273;49.962;9.768;2022-12-16T16:37:15;99709.78;;;2.06;47.41